Time;durP1;ratioP1;P1;durP2;ratioP2;P2;SDS_P1;SDS_P2;PMS_P1;PMS_P2;Temp;Humidity;BMP_temperature;BMP_pressure;BME280_temperature;BME280_humidity;BME280_pressure;Samples;Min_cycle;Max_cycle;Signal;HPM_P1;HPM_P2
2022/04/12 00:00:45;;;;;;;13.25;6.25;;;6.60;99.90;;;;;;5076856;28;20062;-74
2022/04/12 00:03:11;;;;;;;12.13;5.97;;;6.60;99.90;;;;;;5076915;28;20040;-73
2022/04/12 00:05:38;;;;;;;13.68;5.97;;;6.60;99.90;;;;;;5090607;28;20055;-73
2022/04/12 00:08:05;;;;;;;9.23;6.20;;;6.60;99.90;;;;;;5097998;28;20054;-72
2022/04/12 00:10:32;;;;;;;11.20;5.97;;;6.50;99.90;;;;;;5096964;28;20044;-73
2022/04/12 00:13:01;;;;;;;9.57;6.25;;;6.50;99.90;;;;;;5097577;28;20051;-72
2022/04/12 00:15:27;;;;;;;12.90;6.05;;;6.50;99.90;;;;;;5097798;28;20156;-73
2022/04/12 00:20:39;;;;;;;12.00;6.72;;;6.40;99.90;;;;;;5097672;28;20059;-71
2022/04/12 00:23:05;;;;;;;11.50;6.28;;;6.40;99.90;;;;;;5097974;28;20048;-73
2022/04/12 00:25:31;;;;;;;12.45;6.75;;;6.40;99.90;;;;;;5097697;28;20040;-74
2022/04/12 00:27:58;;;;;;;11.43;7.00;;;6.40;99.90;;;;;;5097453;28;20044;-74
2022/04/12 00:30:24;;;;;;;12.57;7.13;;;6.50;99.90;;;;;;5098268;28;20086;-72
2022/04/12 00:32:52;;;;;;;13.50;6.78;;;6.40;99.90;;;;;;5096940;28;20121;-71
2022/04/12 00:35:19;;;;;;;11.80;6.78;;;6.40;99.90;;;;;;5086718;28;20048;-71
2022/04/12 00:37:46;;;;;;;11.85;6.60;;;6.40;99.90;;;;;;5076470;28;20135;-72
2022/04/12 00:40:13;;;;;;;10.00;6.95;;;6.40;99.90;;;;;;5077119;28;20044;-73
2022/04/12 00:42:39;;;;;;;10.43;6.50;;;6.40;99.90;;;;;;5077108;28;20044;-72
2022/04/12 00:45:05;;;;;;;9.90;6.88;;;6.40;99.90;;;;;;5076949;28;20062;-73
2022/04/12 00:47:31;;;;;;;12.50;6.75;;;6.40;99.90;;;;;;5075738;28;20177;-72
2022/04/12 00:49:57;;;;;;;11.02;6.82;;;6.30;99.90;;;;;;5076405;28;20086;-72
2022/04/12 00:52:23;;;;;;;12.13;7.28;;;6.30;99.90;;;;;;5075715;28;20460;-73
2022/04/12 00:54:49;;;;;;;10.30;7.15;;;6.30;99.90;;;;;;5076686;28;20079;-73
2022/04/12 00:57:16;;;;;;;11.10;7.35;;;6.30;99.90;;;;;;5077069;28;20048;-73
2022/04/12 00:59:45;;;;;;;13.38;7.63;;;6.30;99.90;;;;;;5076368;28;20437;-73
2022/04/12 01:02:10;;;;;;;14.90;8.13;;;6.30;99.90;;;;;;5075612;28;20106;-71
2022/04/12 01:04:36;;;;;;;11.00;7.53;;;6.30;99.90;;;;;;5083350;28;20387;-72
2022/04/12 01:07:02;;;;;;;13.65;7.80;;;6.30;99.90;;;;;;5096876;28;20044;-72
2022/04/12 01:09:28;;;;;;;11.05;7.20;;;6.30;99.90;;;;;;5097049;28;20173;-73
2022/04/12 01:11:56;;;;;;;16.40;7.70;;;6.20;99.90;;;;;;5096881;28;20048;-73
2022/04/12 01:14:23;;;;;;;13.45;7.78;;;6.30;99.90;;;;;;5096099;28;20143;-73
2022/04/12 01:16:49;;;;;;;12.27;6.85;;;6.20;99.90;;;;;;5096393;28;20054;-73
2022/04/12 01:19:15;;;;;;;10.68;7.68;;;6.20;99.90;;;;;;5095940;28;20040;-71
2022/04/12 01:22:03;;;;;;;12.27;7.95;;;6.20;99.90;;;;;;5096842;28;20090;-73
2022/04/12 01:24:32;;;;;;;14.45;8.10;;;6.20;99.90;;;;;;5091353;28;20055;-72
2022/04/12 01:26:58;;;;;;;17.33;7.75;;;6.20;99.90;;;;;;5076056;28;20054;-73
2022/04/12 01:29:24;;;;;;;16.45;7.72;;;6.20;99.90;;;;;;5076505;28;20045;-73
2022/04/12 01:31:50;;;;;;;12.27;7.70;;;6.20;99.90;;;;;;5076401;28;20053;-74
2022/04/12 01:34:15;;;;;;;13.80;8.07;;;6.20;99.90;;;;;;5076112;28;20127;-72
2022/04/12 01:36:41;;;;;;;12.02;8.48;;;6.10;99.90;;;;;;5075040;28;20127;-72
2022/04/12 01:39:06;;;;;;;13.18;8.43;;;6.10;99.90;;;;;;5075874;28;20053;-71
2022/04/12 01:41:32;;;;;;;14.93;8.70;;;6.10;99.90;;;;;;5075830;28;20061;-73
2022/04/12 01:43:57;;;;;;;15.18;9.35;;;6.10;99.90;;;;;;5075832;28;20246;-71
2022/04/12 01:46:23;;;;;;;16.10;8.48;;;6.10;99.90;;;;;;5075313;28;20361;-71
2022/04/12 01:48:49;;;;;;;12.40;8.45;;;6.10;99.90;;;;;;5076006;28;20129;-73
2022/04/12 01:51:16;;;;;;;13.15;8.30;;;6.00;99.90;;;;;;5075716;28;20041;-72
2022/04/12 01:53:42;;;;;;;12.80;8.63;;;6.00;99.90;;;;;;5075826;28;20124;-72
2022/04/12 01:56:07;;;;;;;14.10;8.80;;;6.00;99.90;;;;;;5074718;28;20131;-73
2022/04/12 01:58:34;;;;;;;16.13;8.80;;;6.00;99.90;;;;;;5075637;28;20036;-73
2022/04/12 02:01:00;;;;;;;12.57;8.43;;;6.00;99.90;;;;;;5075869;28;20032;-72
2022/04/12 02:03:25;;;;;;;16.88;9.88;;;6.00;99.90;;;;;;5075637;28;20059;-73
2022/04/12 02:05:51;;;;;;;12.93;8.57;;;6.00;99.90;;;;;;5075191;28;20051;-73
2022/04/12 02:08:17;;;;;;;15.65;9.13;;;6.00;99.90;;;;;;5074597;28;20434;-72
2022/04/12 02:10:43;;;;;;;13.68;8.82;;;6.00;99.90;;;;;;5074493;28;20059;-73
2022/04/12 02:13:09;;;;;;;16.75;8.85;;;5.90;99.90;;;;;;5054665;28;20052;-72
2022/04/12 02:15:35;;;;;;;11.98;8.82;;;5.90;99.90;;;;;;5075070;28;20054;-72
2022/04/12 02:18:00;;;;;;;15.25;9.60;;;5.90;99.90;;;;;;5075443;28;20041;-72
2022/04/12 02:20:27;;;;;;;15.05;9.40;;;5.80;99.90;;;;;;5075667;28;20044;-73
2022/04/12 02:22:53;;;;;;;14.82;10.82;;;5.80;99.90;;;;;;5074028;28;20113;-72
2022/04/12 02:25:18;;;;;;;13.18;9.73;;;5.70;99.90;;;;;;5074720;28;20052;-72
2022/04/12 02:27:44;;;;;;;14.32;9.82;;;5.70;99.90;;;;;;5074677;28;20051;-73
2022/04/12 02:30:10;;;;;;;12.95;9.45;;;5.60;99.90;;;;;;5075228;28;20059;-72
2022/04/12 02:32:36;;;;;;;13.23;9.05;;;5.60;99.90;;;;;;5073836;28;20373;-73
2022/04/12 02:35:02;;;;;;;15.43;9.65;;;5.60;99.90;;;;;;5074784;28;20055;-72
2022/04/12 02:37:27;;;;;;;14.10;9.93;;;5.60;99.90;;;;;;5074398;28;20052;-72
2022/04/12 02:39:53;;;;;;;14.35;9.20;;;5.60;99.90;;;;;;5075262;28;20048;-73
2022/04/12 02:42:19;;;;;;;14.75;9.55;;;5.60;99.90;;;;;;5073814;28;20044;-73
2022/04/12 02:44:44;;;;;;;14.35;9.75;;;5.50;99.90;;;;;;5057770;28;20173;-73
2022/04/12 02:47:10;;;;;;;14.55;10.00;;;5.50;99.90;;;;;;5074897;28;20131;-72
2022/04/12 02:49:35;;;;;;;15.88;10.30;;;5.50;99.90;;;;;;5075667;28;20131;-72
2022/04/12 02:52:17;;;;;;;13.75;9.75;;;5.50;99.90;;;;;;5074644;28;20040;-74
2022/04/12 02:54:43;;;;;;;15.20;9.05;;;5.50;99.90;;;;;;5074846;28;20047;-73
2022/04/12 02:57:09;;;;;;;14.45;9.57;;;5.50;99.90;;;;;;5076710;28;20076;-71
2022/04/12 02:59:35;;;;;;;15.55;10.00;;;5.40;99.90;;;;;;5095221;28;20075;-73
2022/04/12 03:02:00;;;;;;;17.40;9.35;;;5.40;99.90;;;;;;5090840;28;20044;-72
2022/04/12 03:04:26;;;;;;;16.17;10.57;;;5.40;99.90;;;;;;5094870;28;20104;-73
2022/04/12 03:06:51;;;;;;;17.30;10.38;;;5.40;99.90;;;;;;5093594;28;20063;-72
2022/04/12 03:09:18;;;;;;;16.10;9.80;;;5.40;99.90;;;;;;5095280;28;20051;-72
2022/04/12 03:11:44;;;;;;;15.32;10.75;;;5.40;99.90;;;;;;5094300;28;20044;-74
2022/04/12 03:14:09;;;;;;;14.73;10.32;;;5.30;99.90;;;;;;5095085;28;20048;-73
2022/04/12 03:16:35;;;;;;;16.42;9.95;;;5.60;99.90;;;;;;5094878;28;20136;-72
2022/04/12 03:19:01;;;;;;;16.75;10.07;;;5.30;99.90;;;;;;5097784;28;20196;-72
2022/04/12 03:21:26;;;;;;;15.63;10.75;;;5.30;99.90;;;;;;5097966;28;20371;-72
2022/04/12 03:23:52;;;;;;;15.18;10.60;;;5.30;99.90;;;;;;5097948;28;20127;-74
2022/04/12 03:26:17;;;;;;;25.73;10.35;;;5.20;99.90;;;;;;5078568;28;20166;-72
2022/04/12 03:28:43;;;;;;;15.52;9.95;;;5.20;99.90;;;;;;5078078;28;20036;-73
2022/04/12 03:31:08;;;;;;;18.27;10.40;;;5.20;99.90;;;;;;5078336;28;20055;-71
2022/04/12 03:33:34;;;;;;;16.15;10.73;;;5.20;99.90;;;;;;5078241;28;20056;-73
2022/04/12 03:35:59;;;;;;;14.75;10.60;;;5.20;99.90;;;;;;5078763;28;20045;-72
2022/04/12 03:38:25;;;;;;;16.23;10.85;;;5.20;99.90;;;;;;5078139;28;20056;-73
2022/04/12 03:40:51;;;;;;;17.83;11.10;;;5.10;99.90;;;;;;5077467;28;20048;-72
2022/04/12 03:43:20;;;;;;;15.85;11.32;;;5.10;99.90;;;;;;5077395;28;20058;-74
2022/04/12 03:45:45;;;;;;;17.75;10.98;;;5.10;99.90;;;;;;5060423;28;20114;-72
2022/04/12 03:48:11;;;;;;;17.73;11.30;;;5.10;99.90;;;;;;5078697;28;20461;-73
2022/04/12 03:50:36;;;;;;;16.10;10.73;;;5.00;99.90;;;;;;5078272;28;20110;-73
2022/04/12 03:53:02;;;;;;;15.63;10.70;;;5.00;99.90;;;;;;5078043;28;20471;-73
2022/04/12 03:55:31;;;;;;;19.83;10.65;;;5.00;99.90;;;;;;5080491;28;20048;-74
2022/04/12 03:58:02;;;;;;;17.33;11.32;;;5.00;99.90;;;;;;5079702;28;20052;-72
2022/04/12 04:00:28;;;;;;;14.70;10.95;;;5.00;99.90;;;;;;5077889;28;20040;-74
2022/04/12 04:02:55;;;;;;;15.38;11.57;;;5.00;99.90;;;;;;5078618;28;20508;-72
2022/04/12 04:05:21;;;;;;;16.88;11.48;;;5.00;99.90;;;;;;5096094;28;20067;-72
2022/04/12 04:07:47;;;;;;;17.20;11.30;;;5.00;99.90;;;;;;5096653;28;20055;-72
2022/04/12 04:10:13;;;;;;;16.15;11.38;;;5.00;99.90;;;;;;5096142;28;20044;-73
2022/04/12 04:12:38;;;;;;;19.60;11.48;;;5.00;99.90;;;;;;5091654;28;20048;-72
2022/04/12 04:15:06;;;;;;;18.23;11.65;;;5.00;99.90;;;;;;5076738;28;20483;-73
2022/04/12 04:17:32;;;;;;;19.02;12.38;;;5.00;99.90;;;;;;5076395;28;20040;-71
2022/04/12 04:19:58;;;;;;;19.45;11.98;;;5.00;99.90;;;;;;5077872;28;20345;-73
2022/04/12 04:22:23;;;;;;;15.85;11.65;;;5.00;99.90;;;;;;5077645;28;20418;-72
2022/04/12 04:24:49;;;;;;;15.13;9.88;;;5.00;99.90;;;;;;5077578;28;20050;-72
2022/04/12 04:27:16;;;;;;;18.80;11.40;;;5.00;99.90;;;;;;5059640;28;20123;-73
2022/04/12 04:29:42;;;;;;;17.25;11.23;;;5.00;99.90;;;;;;5076842;28;20090;-75
2022/04/12 04:32:08;;;;;;;17.58;11.80;;;4.90;99.90;;;;;;5077392;28;20056;-72
2022/04/12 04:34:33;;;;;;;16.85;12.40;;;4.90;99.90;;;;;;5076880;28;20049;-74
2022/04/12 04:36:59;;;;;;;16.67;11.00;;;4.90;99.90;;;;;;5077288;28;20357;-72
2022/04/12 04:39:25;;;;;;;15.88;11.65;;;4.90;99.90;;;;;;5059987;28;20452;-73
2022/04/12 04:41:50;;;;;;;17.92;12.25;;;4.90;99.90;;;;;;5059661;28;20182;-74
2022/04/12 04:44:16;;;;;;;17.88;12.13;;;4.90;99.90;;;;;;5076681;28;20059;-72
2022/04/12 04:46:42;;;;;;;16.52;11.98;;;4.90;99.90;;;;;;5076573;28;20063;-73
2022/04/12 04:49:08;;;;;;;18.00;11.98;;;4.90;99.90;;;;;;5077056;28;20453;-73
2022/04/12 04:51:35;;;;;;;18.60;12.25;;;4.90;99.90;;;;;;5076397;28;20059;-74
2022/04/12 04:54:01;;;;;;;20.15;12.15;;;4.90;99.90;;;;;;5076772;28;20056;-73
2022/04/12 04:56:27;;;;;;;21.52;12.80;;;4.80;99.90;;;;;;5058566;28;20057;-70
2022/04/12 04:58:54;;;;;;;18.15;12.02;;;4.80;99.90;;;;;;5075539;28;20056;-69
2022/04/12 05:01:20;;;;;;;18.88;12.30;;;4.90;99.90;;;;;;5076798;28;20044;-72
2022/04/12 05:03:50;;;;;;;18.55;12.07;;;4.90;99.90;;;;;;5076523;28;20052;-73
2022/04/12 05:06:16;;;;;;;20.73;12.75;;;4.90;99.90;;;;;;5076603;28;20421;-73
2022/04/12 05:08:41;;;;;;;16.83;12.30;;;5.00;99.90;;;;;;5075663;28;20072;-72
2022/04/12 05:11:07;;;;;;;17.33;12.52;;;5.00;99.90;;;;;;5076429;28;20127;-73
2022/04/12 05:13:32;;;;;;;19.33;12.32;;;4.90;99.90;;;;;;5076256;28;20106;-72
2022/04/12 05:15:58;;;;;;;17.10;11.77;;;4.90;99.90;;;;;;5092894;28;20063;-71
2022/04/12 05:18:23;;;;;;;16.48;12.38;;;5.00;99.90;;;;;;5095645;28;20075;-72
2022/04/12 05:20:49;;;;;;;16.30;12.20;;;5.00;99.90;;;;;;5095408;28;20040;-72
2022/04/12 05:23:16;;;;;;;17.95;12.20;;;5.00;99.90;;;;;;5095606;28;20055;-72
2022/04/12 05:25:42;;;;;;;16.95;11.88;;;5.00;99.90;;;;;;5096440;28;20046;-73
2022/04/12 05:28:07;;;;;;;17.70;12.70;;;5.10;99.90;;;;;;5081143;28;20088;-73
2022/04/12 05:30:33;;;;;;;19.95;11.75;;;5.30;99.90;;;;;;5079434;28;20076;-74
2022/04/12 05:32:59;;;;;;;19.67;11.85;;;5.20;99.90;;;;;;5077895;28;20044;-73
2022/04/12 05:35:24;;;;;;;16.48;11.30;;;5.20;99.90;;;;;;5076163;28;20072;-70
2022/04/12 05:37:52;;;;;;;17.35;12.40;;;5.30;99.90;;;;;;5079167;28;20048;-73
2022/04/12 05:40:20;;;;;;;16.90;12.20;;;5.40;99.90;;;;;;5062631;28;20070;-73
2022/04/12 05:42:46;;;;;;;17.77;11.80;;;5.50;99.90;;;;;;5075631;28;20380;-73
2022/04/12 05:45:15;;;;;;;15.10;10.75;;;5.70;99.90;;;;;;5067863;28;20468;-72
2022/04/12 05:47:46;;;;;;;16.17;11.48;;;5.90;99.90;;;;;;5076757;28;20494;-72
2022/04/12 05:50:13;;;;;;;16.33;10.63;;;6.00;99.90;;;;;;5057721;28;20064;-71
2022/04/12 05:52:39;;;;;;;15.95;11.05;;;6.30;99.90;;;;;;5088864;28;20036;-73
2022/04/12 05:55:10;;;;;;;15.75;10.48;;;6.40;99.90;;;;;;5076722;28;20055;-74
2022/04/12 05:57:47;;;;;;;14.63;11.05;;;6.60;99.90;;;;;;5083405;28;20045;-73
2022/04/12 06:00:13;;;;;;;15.68;10.55;;;6.90;99.90;;;;;;5082423;28;20136;-73
2022/04/12 06:02:39;;;;;;;19.02;10.73;;;7.20;99.90;;;;;;5080437;28;20452;-71
2022/04/12 06:05:05;;;;;;;15.18;10.73;;;7.30;99.90;;;;;;5080794;28;20181;-73
2022/04/12 06:07:34;;;;;;;14.90;11.07;;;7.30;99.90;;;;;;5095238;28;20063;-72
2022/04/12 06:10:03;;;;;;;16.15;11.13;;;7.60;99.90;;;;;;5087325;28;20059;-74
2022/04/12 06:12:28;;;;;;;16.48;10.55;;;7.40;99.90;;;;;;5076095;28;20041;-73
2022/04/12 06:14:55;;;;;;;14.32;9.15;;;7.40;99.90;;;;;;5076259;28;20106;-73
2022/04/12 06:17:22;;;;;;;13.55;9.88;;;7.40;99.90;;;;;;5081727;28;20501;-72
2022/04/12 06:19:47;;;;;;;13.48;9.63;;;7.40;99.90;;;;;;5074064;28;20079;-71
2022/04/12 06:22:13;;;;;;;16.50;10.98;;;7.40;99.90;;;;;;5074674;28;20417;-71
2022/04/12 06:24:39;;;;;;;17.23;11.13;;;7.40;99.90;;;;;;5075410;28;20051;-70
2022/04/12 06:27:05;;;;;;;20.60;10.57;;;7.60;99.90;;;;;;5076807;28;20055;-72
2022/04/12 06:29:32;;;;;;;14.77;10.30;;;7.60;99.90;;;;;;5074728;28;20048;-72
2022/04/12 06:31:58;;;;;;;20.98;11.40;;;7.60;99.90;;;;;;5074720;28;20063;-73
2022/04/12 06:34:23;;;;;;;16.20;10.07;;;7.70;99.90;;;;;;5078730;28;20427;-72
2022/04/12 06:36:49;;;;;;;16.00;10.25;;;7.80;99.90;;;;;;5074299;28;20051;-72
2022/04/12 06:39:14;;;;;;;14.40;9.45;;;7.70;99.90;;;;;;5073637;28;20349;-70
2022/04/12 06:41:40;;;;;;;15.15;10.20;;;7.80;99.90;;;;;;5073939;28;20479;-72
2022/04/12 06:44:06;;;;;;;14.27;9.82;;;7.70;99.90;;;;;;5081833;28;20037;-71
2022/04/12 06:46:32;;;;;;;16.13;9.07;;;7.70;99.90;;;;;;5084362;28;20047;-74
2022/04/12 06:48:57;;;;;;;15.15;10.40;;;7.70;99.90;;;;;;5086816;28;20044;-74
2022/04/12 06:51:23;;;;;;;16.40;9.73;;;7.80;99.90;;;;;;5076217;28;20472;-73
2022/04/12 06:53:50;;;;;;;15.50;9.82;;;7.80;99.90;;;;;;5073495;28;20047;-75
2022/04/12 06:56:16;;;;;;;14.70;10.35;;;7.80;99.90;;;;;;5075410;28;20084;-74
2022/04/12 06:58:42;;;;;;;15.65;9.35;;;7.80;99.90;;;;;;5076567;28;20041;-74
2022/04/12 07:01:09;;;;;;;14.77;9.98;;;7.80;99.90;;;;;;5094712;28;20051;-75
2022/04/12 07:03:34;;;;;;;14.13;9.63;;;7.90;99.90;;;;;;5085886;28;20091;-75
2022/04/12 07:06:00;;;;;;;15.23;10.07;;;8.00;99.90;;;;;;5083602;28;20494;-73
2022/04/12 07:08:26;;;;;;;15.60;10.65;;;8.10;99.90;;;;;;5093836;28;20028;-74
2022/04/12 07:10:51;;;;;;;18.80;10.65;;;8.10;99.90;;;;;;5093998;28;20048;-73
2022/04/12 07:13:17;;;;;;;14.65;10.13;;;8.20;99.90;;;;;;5074900;28;20444;-74
2022/04/12 07:15:43;;;;;;;15.20;10.68;;;8.20;99.90;;;;;;5082063;28;20142;-73
2022/04/12 07:18:10;;;;;;;13.85;10.27;;;8.30;99.90;;;;;;5082392;28;20119;-73
2022/04/12 07:20:35;;;;;;;15.13;10.18;;;8.40;99.90;;;;;;5077895;28;20365;-73
2022/04/12 07:23:01;;;;;;;13.70;9.68;;;8.40;99.90;;;;;;5074075;28;20040;-73
2022/04/12 07:25:27;;;;;;;14.90;9.77;;;8.50;99.90;;;;;;5074475;28;20053;-74
2022/04/12 07:27:52;;;;;;;16.38;10.80;;;8.60;99.90;;;;;;5077297;28;20130;-72
2022/04/12 07:30:18;;;;;;;18.67;10.05;;;8.80;99.90;;;;;;5090487;28;20059;-74
2022/04/12 07:32:44;;;;;;;16.98;10.02;;;8.90;99.90;;;;;;5077729;28;20190;-73
2022/04/12 07:35:09;;;;;;;14.88;10.43;;;9.10;99.90;;;;;;5077456;28;20044;-73
2022/04/12 07:37:35;;;;;;;14.18;9.82;;;9.30;99.90;;;;;;5074172;28;20044;-74
2022/04/12 07:40:02;;;;;;;14.35;10.38;;;9.50;99.90;;;;;;5076555;28;20452;-72
2022/04/12 07:42:28;;;;;;;16.45;9.48;;;9.50;99.90;;;;;;5093527;28;20031;-73
2022/04/12 07:44:53;;;;;;;14.32;10.13;;;9.70;99.90;;;;;;5065763;28;20041;-73
2022/04/12 07:47:19;;;;;;;18.95;10.88;;;9.70;99.90;;;;;;5086098;28;20037;-74
2022/04/12 07:49:44;;;;;;;15.43;10.43;;;9.80;99.90;;;;;;5079443;28;20044;-74
2022/04/12 07:52:10;;;;;;;14.15;9.70;;;9.90;99.90;;;;;;5073549;28;20051;-72
2022/04/12 07:54:35;;;;;;;15.45;10.38;;;10.00;99.90;;;;;;5088572;28;20516;-73
2022/04/12 07:57:01;;;;;;;15.95;10.13;;;10.10;99.90;;;;;;5055972;28;20052;-73
2022/04/12 07:59:27;;;;;;;14.40;10.15;;;10.20;99.90;;;;;;5080841;28;20518;-72
2022/04/12 08:01:52;;;;;;;18.30;10.27;;;10.20;99.90;;;;;;5076706;28;20123;-73
2022/04/12 08:04:18;;;;;;;14.73;10.45;;;10.30;99.90;;;;;;5076475;28;20044;-74
2022/04/12 08:06:43;;;;;;;14.52;9.55;;;10.40;99.90;;;;;;5077090;28;20053;-73
2022/04/12 08:09:09;;;;;;;13.77;9.38;;;10.50;99.90;;;;;;5084109;28;20079;-73
2022/04/12 08:11:35;;;;;;;13.50;9.65;;;10.60;99.90;;;;;;5079654;28;20139;-73
2022/04/12 08:14:01;;;;;;;16.35;9.77;;;10.80;99.90;;;;;;5092147;28;20419;-73
2022/04/12 08:16:26;;;;;;;14.13;9.63;;;10.90;99.90;;;;;;5097422;28;20499;-73
2022/04/12 08:18:52;;;;;;;12.32;8.95;;;11.00;99.90;;;;;;5087282;28;20048;-74
2022/04/12 08:21:50;;;;;;;16.85;10.73;;;11.10;99.90;;;;;;5077011;28;20056;-73
2022/04/12 08:24:15;;;;;;;14.25;9.65;;;11.30;99.90;;;;;;5043579;28;20085;-72
2022/04/12 08:26:41;;;;;;;12.88;9.13;;;11.40;99.90;;;;;;5077529;28;20045;-73
2022/04/12 08:29:06;;;;;;;13.13;9.20;;;11.70;99.90;;;;;;5077461;28;20052;-75
2022/04/12 08:31:32;;;;;;;15.88;9.57;;;12.00;99.90;;;;;;5077404;28;20048;-73
2022/04/12 08:33:58;;;;;;;13.95;10.38;;;12.60;99.90;;;;;;5109912;28;20051;-72
2022/04/12 08:36:25;;;;;;;16.60;10.02;;;13.10;99.90;;;;;;5077036;28;20097;-73
2022/04/12 08:38:51;;;;;;;13.57;9.70;;;13.50;99.90;;;;;;5088116;28;20047;-72
2022/04/12 08:41:19;;;;;;;14.30;9.95;;;14.00;99.90;;;;;;5097436;28;20040;-73
2022/04/12 08:43:45;;;;;;;14.90;9.27;;;14.50;99.90;;;;;;5097571;28;20048;-74
2022/04/12 08:46:11;;;;;;;13.57;9.65;;;14.80;99.90;;;;;;5097156;28;20147;-73
2022/04/12 08:48:38;;;;;;;14.07;9.75;;;14.90;99.90;;;;;;5097525;28;20087;-73
2022/04/12 08:51:04;;;;;;;12.50;9.70;;;14.80;99.90;;;;;;5097734;28;20391;-76
2022/04/12 08:53:31;;;;;;;15.95;9.85;;;14.60;99.90;;;;;;5096582;28;20091;-73
2022/04/12 08:55:56;;;;;;;13.85;9.48;;;14.70;99.90;;;;;;5096327;28;20073;-73
2022/04/12 08:58:22;;;;;;;15.00;9.48;;;14.70;99.90;;;;;;5096719;28;20048;-72
2022/04/12 09:00:49;;;;;;;13.65;9.07;;;14.40;99.90;;;;;;5097172;28;20048;-73
2022/04/12 09:03:15;;;;;;;11.23;9.00;;;14.40;99.90;;;;;;5096838;28;20048;-72
2022/04/12 09:05:41;;;;;;;12.23;9.05;;;14.20;99.90;;;;;;5078764;28;20330;-73
2022/04/12 09:08:30;;;;;;;13.30;8.70;;;14.10;99.90;;;;;;5091845;28;20051;-72
2022/04/12 09:11:05;;;;;;;13.38;9.57;;;14.20;99.90;;;;;;5076656;28;20116;-73
2022/04/12 09:13:31;;;;;;;12.80;9.05;;;14.30;99.90;;;;;;5076448;28;20052;-72
2022/04/12 09:15:57;;;;;;;16.52;9.60;;;14.30;99.90;;;;;;5076269;28;20048;-75
2022/04/12 09:18:41;;;;;;;13.27;9.07;;;14.30;99.90;;;;;;5076502;28;20344;-75
2022/04/12 09:21:14;;;;;;;12.57;8.75;;;14.30;99.90;;;;;;5076738;28;20122;-72
2022/04/12 09:24:00;;;;;;;14.43;9.32;;;14.30;99.90;;;;;;5075947;28;20044;-72
2022/04/12 09:26:28;;;;;;;12.55;9.65;;;14.50;99.90;;;;;;5076561;28;20051;-71
2022/04/12 09:28:58;;;;;;;12.90;8.55;;;14.80;99.90;;;;;;5074941;28;20453;-71
2022/04/12 09:31:24;;;;;;;14.90;9.02;;;15.10;99.90;;;;;;5074983;28;20330;-72
2022/04/12 09:33:52;;;;;;;14.80;9.68;;;15.60;99.90;;;;;;5076260;28;20056;-72
2022/04/12 09:36:18;;;;;;;14.25;9.48;;;16.20;99.90;;;;;;5075941;28;20121;-72
2022/04/12 09:38:45;;;;;;;12.23;8.52;;;16.40;99.90;;;;;;5075812;28;20044;-73
2022/04/12 09:41:19;;;;;;;11.05;8.63;;;16.50;99.90;;;;;;5075264;28;20058;-73
2022/04/12 09:44:08;;;;;;;12.82;8.68;;;16.30;99.90;;;;;;5058989;28;20117;-72
2022/04/12 09:46:39;;;;;;;13.55;9.07;;;15.80;99.90;;;;;;5075578;28;20468;-73
2022/04/12 09:49:06;;;;;;;12.52;9.48;;;15.60;99.90;;;;;;5075578;28;20542;-72
2022/04/12 09:51:36;;;;;;;15.75;9.77;;;15.60;99.90;;;;;;5075794;28;20068;-73
2022/04/12 09:54:02;;;;;;;14.15;9.05;;;15.60;99.90;;;;;;5075625;28;20191;-73
2022/04/12 09:56:30;;;;;;;12.77;9.27;;;15.50;99.90;;;;;;5075496;28;20056;-74
2022/04/12 09:58:57;;;;;;;14.02;9.38;;;15.30;99.90;;;;;;5075877;28;20360;-72
2022/04/12 10:01:24;;;;;;;11.73;9.20;;;15.10;99.90;;;;;;5057840;28;20066;-72
2022/04/12 10:03:53;;;;;;;13.27;9.02;;;15.20;99.90;;;;;;5074324;28;20068;-73
2022/04/12 10:06:23;;;;;;;13.23;9.05;;;15.10;99.90;;;;;;5074509;28;20376;-73
2022/04/12 10:08:57;;;;;;;12.32;9.27;;;15.20;99.90;;;;;;5075226;28;20123;-74
2022/04/12 10:11:23;;;;;;;14.18;8.80;;;15.30;99.90;;;;;;5075288;28;20075;-72
2022/04/12 10:13:49;;;;;;;14.32;9.25;;;15.40;99.90;;;;;;5075208;28;20036;-72
2022/04/12 10:16:17;;;;;;;12.15;9.13;;;15.60;99.90;;;;;;5074723;28;20140;-72
2022/04/12 10:18:44;;;;;;;14.70;9.48;;;15.70;99.90;;;;;;5075091;28;20464;-72
2022/04/12 10:21:14;;;;;;;13.48;9.25;;;15.80;99.90;;;;;;5075588;28;20486;-72
2022/04/12 10:23:46;;;;;;;14.45;9.10;;;15.60;99.90;;;;;;5184464;22;20130;-72
2022/04/12 10:26:12;;;;;;;10.90;8.57;;;15.80;99.90;;;;;;4995301;28;20132;-73
2022/04/12 10:28:39;;;;;;;11.90;9.50;;;15.70;99.90;;;;;;4979072;28;20114;-75
2022/04/12 10:31:13;;;;;;;12.60;9.20;;;15.80;99.90;;;;;;4995751;28;20042;-71
2022/04/12 10:33:39;;;;;;;12.27;9.02;;;15.60;99.90;;;;;;4995785;28;20039;-74
2022/04/12 10:36:06;;;;;;;12.63;9.40;;;15.70;99.90;;;;;;4995775;28;20042;-73
2022/04/12 10:38:40;;;;;;;13.90;8.43;;;15.70;99.90;;;;;;4996497;28;20050;-72
2022/04/12 10:41:11;;;;;;;14.65;9.70;;;15.90;99.90;;;;;;4995801;28;20116;-72
2022/04/12 10:43:38;;;;;;;14.73;7.85;;;16.00;99.90;;;;;;4995964;28;20394;-73
2022/04/12 10:46:06;;;;;;;13.10;9.80;;;16.10;99.90;;;;;;4978569;28;20101;-72
2022/04/12 10:48:33;;;;;;;19.30;9.45;;;16.10;99.90;;;;;;4995780;28;20073;-72
2022/04/12 10:51:00;;;;;;;13.27;9.98;;;16.30;99.90;;;;;;4995746;28;20052;-73
2022/04/12 10:53:38;;;;;;;13.57;9.52;;;16.40;99.90;;;;;;4995341;28;20450;-72
2022/04/12 10:56:11;;;;;;;13.60;9.30;;;16.50;99.90;;;;;;4976037;28;20038;-73
2022/04/12 10:58:37;;;;;;;14.80;9.10;;;16.50;99.90;;;;;;4976069;28;20054;-72
2022/04/12 11:01:04;;;;;;;14.73;8.20;;;16.60;99.90;;;;;;4976165;28;20036;-71
2022/04/12 11:03:42;;;;;;;13.63;8.88;;;16.80;99.90;;;;;;4976229;28;20074;-73
2022/04/12 11:06:29;;;;;;;14.15;9.05;;;16.90;99.90;;;;;;4958696;28;20051;-72
2022/04/12 11:09:11;;;;;;;14.50;8.70;;;16.80;99.90;;;;;;4975841;28;20475;-72
2022/04/12 11:11:42;;;;;;;12.20;8.98;;;16.90;99.90;;;;;;4976044;28;20109;-72
2022/04/12 11:14:36;;;;;;;13.38;8.45;;;17.10;99.90;;;;;;4959109;28;20078;-72
2022/04/12 11:17:09;;;;;;;11.90;8.57;;;17.00;99.90;;;;;;4958838;28;20061;-74
2022/04/12 11:19:43;;;;;;;11.93;8.40;;;17.10;99.90;;;;;;4976001;28;20057;-72
2022/04/12 11:22:11;;;;;;;12.27;8.65;;;17.10;99.90;;;;;;4958740;28;20445;-73
2022/04/12 11:24:37;;;;;;;11.40;8.15;;;17.30;99.90;;;;;;4967058;28;20042;-73
2022/04/12 11:27:10;;;;;;;12.35;8.07;;;17.30;99.90;;;;;;4995225;28;20136;-74
2022/04/12 11:29:40;;;;;;;;;;;17.40;99.90;;;;;;4978196;28;20467;-73
2022/04/12 11:32:07;;;;;;;12.50;7.60;;;17.50;99.90;;;;;;4975788;28;19964;-73
2022/04/12 11:34:37;;;;;;;11.95;7.93;;;17.70;99.90;;;;;;4995420;28;20046;-72
2022/04/12 11:37:05;;;;;;;12.40;8.10;;;17.70;99.90;;;;;;4977061;28;20054;-72
2022/04/12 11:39:35;;;;;;;12.20;8.15;;;18.00;99.90;;;;;;4998175;28;20050;-73
2022/04/12 11:42:04;;;;;;;11.52;7.60;;;18.00;99.90;;;;;;4981951;28;20081;-71
2022/04/12 11:44:30;;;;;;;11.77;7.60;;;18.10;99.90;;;;;;4982147;28;20070;-72
2022/04/12 11:47:04;;;;;;;12.48;8.60;;;18.10;99.90;;;;;;4998914;28;20050;-71
2022/04/12 11:49:36;;;;;;;13.45;8.52;;;18.30;99.90;;;;;;4981843;28;20359;-74
2022/04/12 11:52:04;;;;;;;11.98;8.13;;;18.30;99.90;;;;;;4980727;28;20073;-73
2022/04/12 11:54:32;;;;;;;12.65;7.90;;;18.40;99.90;;;;;;4998556;28;20046;-72
2022/04/12 11:57:01;;;;;;;13.18;8.40;;;18.30;99.50;;;;;;4998579;28;20038;-73
2022/04/12 11:59:28;;;;;;;12.07;7.93;;;18.30;99.90;;;;;;4998661;28;20441;-74
2022/04/12 12:01:59;;;;;;;11.30;7.95;;;18.50;99.90;;;;;;4998604;28;20053;-71
2022/04/12 12:04:30;;;;;;;10.82;8.27;;;18.50;99.30;;;;;;4998543;28;20046;-72
2022/04/12 12:07:07;;;;;;;12.10;7.68;;;18.50;97.90;;;;;;4998380;28;20038;-74
2022/04/12 12:09:34;;;;;;;13.57;8.77;;;18.50;99.70;;;;;;4998344;28;20050;-73
2022/04/12 12:12:08;;;;;;;11.60;7.57;;;18.70;99.40;;;;;;4998835;28;20054;-73
2022/04/12 12:14:35;;;;;;;11.77;8.52;;;18.90;99.90;;;;;;4981272;28;20057;-72
2022/04/12 12:17:09;;;;;;;11.77;7.82;;;19.10;99.70;;;;;;4994851;28;20089;-72
2022/04/12 12:19:39;;;;;;;13.43;7.40;;;19.20;98.50;;;;;;4998123;28;20447;-73
2022/04/12 12:22:06;;;;;;;14.75;9.30;;;19.30;99.90;;;;;;4981588;28;20134;-74
2022/04/12 12:24:37;;;;;;;12.93;8.55;;;19.40;99.80;;;;;;4998441;28;20116;-72
2022/04/12 12:27:05;;;;;;;13.05;9.50;;;19.40;98.90;;;;;;4997049;28;20042;-72
2022/04/12 12:29:36;;;;;;;12.90;9.15;;;19.40;98.80;;;;;;4997399;28;20073;-73
2022/04/12 12:32:02;;;;;;;14.32;9.63;;;19.50;98.60;;;;;;4981050;28;20034;-72
2022/04/12 12:34:33;;;;;;;12.93;8.00;;;19.40;97.00;;;;;;4997887;28;20410;-73
2022/04/12 12:37:06;;;;;;;13.77;8.95;;;19.60;98.00;;;;;;4997934;28;20097;-72
2022/04/12 12:39:35;;;;;;;;;;;19.70;97.10;;;;;;4998345;28;20126;-71
2022/04/12 12:42:02;;;;;;;13.20;7.95;;;19.70;97.80;;;;;;4997752;28;19926;-74
2022/04/12 12:44:34;;;;;;;17.25;8.13;;;19.70;97.50;;;;;;4996793;28;20061;-74